Time;durP1;ratioP1;P1;durP2;ratioP2;P2;SDS_P1;SDS_P2;PMS_P1;PMS_P2;Temp;Humidity;BMP_temperature;BMP_pressure;BME280_temperature;BME280_humidity;BME280_pressure;Samples;Min_cycle;Max_cycle;Signal;HPM_P1;HPM_P2
2022/07/18 00:02:21;;;;;;;6.28;2.08;;;13.20;99.90;;;;;;5030165;28;20034;-57
2022/07/18 00:04:47;;;;;;;4.68;1.58;;;13.20;99.90;;;;;;5030183;28;20085;-57
2022/07/18 00:07:13;;;;;;;4.40;1.50;;;13.10;99.90;;;;;;5044638;28;20516;-56
2022/07/18 00:09:40;;;;;;;4.88;1.60;;;13.00;99.90;;;;;;5030461;28;20026;-56
2022/07/18 00:12:08;;;;;;;17.98;1.67;;;12.90;99.90;;;;;;5030645;28;20105;-57
2022/07/18 00:14:34;;;;;;;4.30;1.63;;;12.80;99.90;;;;;;5030050;28;20120;-56
2022/07/18 00:17:00;;;;;;;2.65;1.38;;;12.70;99.90;;;;;;5030279;28;20754;-57
2022/07/18 00:19:27;;;;;;;4.35;1.45;;;12.60;99.90;;;;;;5029156;28;20572;-57
2022/07/18 00:21:52;;;;;;;2.88;1.20;;;12.60;99.90;;;;;;5030079;28;20032;-57
2022/07/18 00:24:18;;;;;;;3.20;1.23;;;12.50;99.90;;;;;;5029924;28;21080;-56
2022/07/18 00:26:44;;;;;;;4.82;1.48;;;12.50;99.90;;;;;;5030014;28;20045;-56
2022/07/18 00:29:09;;;;;;;2.97;1.48;;;12.50;99.90;;;;;;5028570;28;20030;-57
2022/07/18 00:31:35;;;;;;;3.80;1.42;;;12.40;99.90;;;;;;5028225;28;20050;-56
2022/07/18 00:34:02;;;;;;;4.13;1.42;;;12.30;99.90;;;;;;5030425;28;20030;-57
2022/07/18 00:36:29;;;;;;;3.55;1.50;;;12.30;99.90;;;;;;5027757;28;20472;-57
2022/07/18 00:38:54;;;;;;;3.05;1.52;;;12.30;99.90;;;;;;5029253;28;20124;-57
2022/07/18 00:41:20;;;;;;;6.05;1.40;;;12.30;99.90;;;;;;5028398;28;20457;-57
2022/07/18 00:43:47;;;;;;;3.35;1.40;;;12.30;99.90;;;;;;5028951;28;20033;-57
2022/07/18 00:46:12;;;;;;;3.25;1.35;;;12.30;99.90;;;;;;5027274;28;20489;-56
2022/07/18 00:48:39;;;;;;;4.65;1.50;;;12.30;99.90;;;;;;5028307;28;20032;-57
2022/07/18 00:51:05;;;;;;;3.67;1.50;;;12.20;99.90;;;;;;5045301;28;20078;-56
2022/07/18 00:53:31;;;;;;;2.05;1.20;;;12.20;99.90;;;;;;5028638;28;20079;-56
2022/07/18 00:55:57;;;;;;;10.15;1.52;;;12.20;99.90;;;;;;5028693;28;20033;-56
2022/07/18 00:58:22;;;;;;;4.43;1.55;;;12.10;99.90;;;;;;5028030;28;20510;-55
2022/07/18 01:03:32;;;;;;;2.45;1.25;;;12.00;99.90;;;;;;5027229;28;20036;-57
2022/07/18 01:05:58;;;;;;;3.78;1.50;;;12.00;99.90;;;;;;5025839;28;20029;-56
2022/07/18 01:08:24;;;;;;;3.25;1.60;;;11.90;99.90;;;;;;5027272;28;20103;-57
2022/07/18 01:10:51;;;;;;;2.35;1.65;;;11.90;99.90;;;;;;5029161;28;20393;-56
2022/07/18 01:13:17;;;;;;;6.22;1.67;;;11.90;99.90;;;;;;5028379;28;20022;-57
2022/07/18 01:15:43;;;;;;;5.57;1.73;;;11.90;99.90;;;;;;5029328;28;20473;-57
2022/07/18 01:18:09;;;;;;;8.95;1.70;;;11.90;99.90;;;;;;5029319;28;20033;-57
2022/07/18 01:20:34;;;;;;;3.28;1.50;;;11.80;99.90;;;;;;5028101;28;20384;-56
2022/07/18 01:23:00;;;;;;;1.90;1.40;;;11.80;99.90;;;;;;5028365;28;20503;-57
2022/07/18 01:25:26;;;;;;;4.70;1.30;;;11.80;99.90;;;;;;5028558;28;20038;-58
2022/07/18 01:27:52;;;;;;;3.85;1.48;;;11.70;99.90;;;;;;5027754;28;20032;-56
2022/07/18 01:30:18;;;;;;;2.95;1.33;;;11.70;99.90;;;;;;5029425;28;20022;-56
2022/07/18 01:32:44;;;;;;;6.40;1.63;;;11.70;99.90;;;;;;5028355;28;20083;-57
2022/07/18 01:35:10;;;;;;;6.85;1.77;;;11.60;99.90;;;;;;5028861;28;20026;-57
2022/07/18 01:37:36;;;;;;;5.72;1.52;;;11.60;99.90;;;;;;5027882;28;20539;-57
2022/07/18 01:40:06;;;;;;;2.42;1.48;;;11.50;99.90;;;;;;5027228;28;20025;-57
2022/07/18 01:42:32;;;;;;;5.78;1.75;;;11.40;99.90;;;;;;5027345;28;20384;-58
2022/07/18 01:44:58;;;;;;;2.33;1.50;;;11.30;99.90;;;;;;5027042;28;20033;-55
2022/07/18 01:47:23;;;;;;;4.53;1.42;;;11.30;99.90;;;;;;5028740;28;20532;-56
2022/07/18 01:49:49;;;;;;;3.22;1.48;;;11.20;99.90;;;;;;5027881;28;20037;-56
2022/07/18 01:52:14;;;;;;;2.83;1.58;;;11.10;99.90;;;;;;5028714;28;20025;-56
2022/07/18 01:54:40;;;;;;;5.28;1.60;;;11.00;99.90;;;;;;5027949;28;20129;-57
2022/07/18 01:57:06;;;;;;;2.17;1.67;;;10.90;99.90;;;;;;5028427;28;20049;-55
2022/07/18 01:59:32;;;;;;;5.28;1.98;;;10.90;99.90;;;;;;5028383;28;20026;-56
2022/07/18 02:01:58;;;;;;;2.63;1.63;;;10.90;99.90;;;;;;5028358;28;20044;-57
2022/07/18 02:04:59;;;;;;;3.65;1.52;;;10.80;99.90;;;;;;5028424;28;20125;-57
2022/07/18 02:07:11;;;;;;;2.88;1.55;;;10.80;99.90;;;;;;5027461;28;20044;-57
2022/07/18 02:09:36;;;;;;;7.03;1.48;;;10.80;99.90;;;;;;5027981;28;20067;-55
2022/07/18 02:12:02;;;;;;;5.63;1.50;;;10.80;99.90;;;;;;5028603;28;20577;-57
2022/07/18 02:14:28;;;;;;;4.25;1.65;;;10.80;99.90;;;;;;5028423;28;20026;-57
2022/07/18 02:16:54;;;;;;;3.00;1.52;;;10.80;99.90;;;;;;5027496;28;20022;-57
2022/07/18 02:19:19;;;;;;;4.30;1.92;;;10.80;99.90;;;;;;5027999;28;20116;-58
2022/07/18 02:21:45;;;;;;;6.07;1.40;;;10.80;99.90;;;;;;5028284;28;20018;-58
2022/07/18 02:24:11;;;;;;;3.03;1.60;;;10.80;99.90;;;;;;5026208;28;20018;-57
2022/07/18 02:26:36;;;;;;;4.38;1.90;;;10.80;99.90;;;;;;5027728;28;20036;-56
2022/07/18 02:29:02;;;;;;;7.78;1.75;;;10.70;99.90;;;;;;5025186;28;20030;-57
2022/07/18 02:31:28;;;;;;;3.15;1.50;;;10.70;99.90;;;;;;5028187;28;20057;-56
2022/07/18 02:33:53;;;;;;;4.22;1.73;;;10.60;99.90;;;;;;5028004;28;20079;-56
2022/07/18 02:36:19;;;;;;;2.97;1.40;;;10.60;99.90;;;;;;5027552;28;20033;-57
2022/07/18 02:38:45;;;;;;;3.00;1.60;;;10.50;99.90;;;;;;5027744;28;20022;-57
2022/07/18 02:41:10;;;;;;;4.30;1.40;;;10.50;99.90;;;;;;5027199;28;20537;-56
2022/07/18 02:43:36;;;;;;;2.75;2.10;;;10.40;99.90;;;;;;5027551;28;20040;-57
2022/07/18 02:46:03;;;;;;;4.05;1.95;;;10.40;99.90;;;;;;5027177;28;20108;-58
2022/07/18 02:48:28;;;;;;;13.63;1.70;;;10.40;99.90;;;;;;5028296;28;20022;-58
2022/07/18 02:50:54;;;;;;;7.50;1.70;;;10.30;99.90;;;;;;5027973;28;20018;-57
2022/07/18 02:53:23;;;;;;;4.93;1.92;;;10.30;99.90;;;;;;5026436;28;20026;-56
2022/07/18 02:55:51;;;;;;;5.45;1.65;;;10.30;99.90;;;;;;5027934;28;20133;-56
2022/07/18 02:58:17;;;;;;;4.45;2.13;;;10.30;99.90;;;;;;5027282;28;20032;-56
2022/07/18 03:00:43;;;;;;;1.92;1.40;;;10.20;99.90;;;;;;5028031;28;20029;-57
2022/07/18 03:03:09;;;;;;;3.70;1.70;;;10.20;99.90;;;;;;5030446;28;20083;-56
2022/07/18 03:05:35;;;;;;;7.72;1.70;;;10.10;99.90;;;;;;5031446;28;20026;-56
2022/07/18 03:08:00;;;;;;;3.72;2.38;;;10.10;99.90;;;;;;5030817;28;20481;-58
2022/07/18 03:10:26;;;;;;;5.57;1.90;;;10.00;99.90;;;;;;5032127;28;20121;-56
2022/07/18 03:12:52;;;;;;;4.30;1.70;;;9.90;99.90;;;;;;5031193;28;20033;-56
2022/07/18 03:15:17;;;;;;;2.50;1.55;;;9.90;99.90;;;;;;5030370;28;20029;-57
2022/07/18 03:17:43;;;;;;;5.88;1.75;;;9.80;99.90;;;;;;5031075;28;20160;-57
2022/07/18 03:20:09;;;;;;;2.97;1.88;;;9.80;99.90;;;;;;5030327;28;20087;-57
2022/07/18 03:22:35;;;;;;;6.88;1.88;;;9.80;99.90;;;;;;5030910;28;20048;-56
2022/07/18 03:25:01;;;;;;;3.80;1.80;;;9.70;99.90;;;;;;5030410;28;20113;-57
2022/07/18 03:27:26;;;;;;;4.25;1.80;;;9.70;99.90;;;;;;5031322;28;20010;-56
2022/07/18 03:29:52;;;;;;;6.78;2.03;;;9.70;99.90;;;;;;5031022;28;20022;-56
2022/07/18 03:32:18;;;;;;;3.78;1.90;;;9.70;99.90;;;;;;5029268;28;20097;-57
2022/07/18 03:34:44;;;;;;;5.47;2.45;;;9.70;99.90;;;;;;5030591;28;20392;-56
2022/07/18 03:37:09;;;;;;;5.22;1.75;;;9.80;99.90;;;;;;5026419;28;20034;-57
2022/07/18 03:39:35;;;;;;;6.20;2.20;;;9.80;99.90;;;;;;5029366;28;20095;-56
2022/07/18 03:42:00;;;;;;;5.40;2.30;;;9.80;99.90;;;;;;5029426;28;20112;-57
2022/07/18 03:44:26;;;;;;;4.10;1.85;;;9.80;99.90;;;;;;5028258;28;20026;-57
2022/07/18 03:46:53;;;;;;;2.10;1.77;;;9.80;99.90;;;;;;5029054;28;20038;-57
2022/07/18 03:49:19;;;;;;;3.33;2.10;;;9.80;99.90;;;;;;5029359;28;20022;-56
2022/07/18 03:51:45;;;;;;;2.50;1.77;;;9.80;99.90;;;;;;5030573;28;20026;-55
2022/07/18 03:54:11;;;;;;;2.35;1.75;;;9.80;99.90;;;;;;5030365;28;20041;-57
2022/07/18 03:56:37;;;;;;;3.20;1.67;;;9.70;99.90;;;;;;5030352;28;20033;-57
2022/07/18 03:59:03;;;;;;;4.57;2.13;;;9.70;99.90;;;;;;5029983;28;20032;-57
2022/07/18 04:01:28;;;;;;;5.28;2.03;;;9.60;99.90;;;;;;5029145;28;20033;-58
2022/07/18 04:03:54;;;;;;;2.50;2.10;;;9.60;99.90;;;;;;5029052;28;20053;-58
2022/07/18 04:06:20;;;;;;;3.90;1.98;;;9.60;99.90;;;;;;5028038;28;20017;-57
2022/07/18 04:08:45;;;;;;;3.40;1.80;;;9.60;99.90;;;;;;5026800;28;20036;-56
2022/07/18 04:11:11;;;;;;;4.43;1.85;;;9.70;99.90;;;;;;5028519;28;20037;-57
2022/07/18 04:13:37;;;;;;;3.90;1.80;;;9.70;99.90;;;;;;5028602;28;20026;-57
2022/07/18 04:16:03;;;;;;;3.95;2.00;;;9.80;99.90;;;;;;5028707;28;20069;-55
2022/07/18 04:18:29;;;;;;;3.88;1.73;;;9.80;99.90;;;;;;5029556;28;20080;-56
2022/07/18 04:20:56;;;;;;;1.67;1.58;;;9.90;99.90;;;;;;5029931;28;20017;-56
2022/07/18 04:23:21;;;;;;;2.85;1.85;;;10.00;99.90;;;;;;5029809;28;20040;-57
2022/07/18 04:25:47;;;;;;;6.30;2.22;;;10.10;99.90;;;;;;5029596;28;20033;-57
2022/07/18 04:28:13;;;;;;;3.17;1.95;;;10.10;99.90;;;;;;5029443;28;20037;-56
2022/07/18 04:30:40;;;;;;;2.42;1.70;;;10.20;99.90;;;;;;5029457;28;20148;-57
2022/07/18 04:33:07;;;;;;;3.47;1.70;;;10.30;99.90;;;;;;5030172;28;20029;-57
2022/07/18 04:35:38;;;;;;;4.38;1.83;;;10.50;99.90;;;;;;5028862;28;20036;-58
2022/07/18 04:38:05;;;;;;;4.43;1.50;;;10.50;99.90;;;;;;5029963;28;20452;-58
2022/07/18 04:40:31;;;;;;;3.08;1.75;;;10.60;99.90;;;;;;5029253;28;20022;-56
2022/07/18 04:42:56;;;;;;;2.97;1.60;;;10.70;99.90;;;;;;5029024;28;20026;-56
2022/07/18 04:45:23;;;;;;;5.55;2.47;;;10.80;99.90;;;;;;5029277;28;20032;-56
2022/07/18 04:47:50;;;;;;;2.58;1.80;;;10.80;99.90;;;;;;5028878;28;20026;-55
2022/07/18 04:50:16;;;;;;;2.63;1.50;;;10.90;99.90;;;;;;5028971;28;20043;-56
2022/07/18 04:52:44;;;;;;;2.22;1.70;;;10.90;99.90;;;;;;5028872;28;20037;-55
2022/07/18 04:55:12;;;;;;;3.90;1.80;;;10.90;99.90;;;;;;5029592;28;20048;-57
2022/07/18 04:57:39;;;;;;;2.45;1.83;;;11.00;99.90;;;;;;5029664;28;20029;-56
2022/07/18 05:00:08;;;;;;;4.65;1.90;;;11.10;99.90;;;;;;5030417;28;20346;-57
2022/07/18 05:02:33;;;;;;;2.22;1.75;;;11.20;99.90;;;;;;5027198;28;20045;-57
2022/07/18 05:04:59;;;;;;;2.38;1.60;;;11.40;99.90;;;;;;5029080;28;20037;-56
2022/07/18 05:07:25;;;;;;;2.58;1.92;;;11.50;99.90;;;;;;5028336;28;20095;-56
2022/07/18 05:09:50;;;;;;;6.32;1.90;;;11.70;99.90;;;;;;5027513;28;20048;-57
2022/07/18 05:12:18;;;;;;;3.15;1.70;;;12.10;99.90;;;;;;5029597;28;20074;-58
2022/07/18 05:14:44;;;;;;;1.90;1.15;;;12.90;99.90;;;;;;5028024;28;20034;-58
2022/07/18 05:17:09;;;;;;;3.08;1.60;;;14.30;99.90;;;;;;5028556;28;20063;-57
2022/07/18 05:19:35;;;;;;;5.88;1.30;;;15.80;99.90;;;;;;5028752;28;20025;-57
2022/07/18 05:22:01;;;;;;;4.60;1.52;;;17.60;96.50;;;;;;5029136;28;20060;-59
2022/07/18 05:24:26;;;;;;;6.60;1.63;;;19.00;85.60;;;;;;5029050;28;20620;-58
2022/07/18 05:26:52;;;;;;;6.13;1.50;;;20.50;77.40;;;;;;5028846;28;20032;-58
2022/07/18 05:29:18;;;;;;;2.70;1.60;;;21.40;70.50;;;;;;5028562;28;20037;-59
2022/07/18 05:31:43;;;;;;;1.88;1.27;;;22.40;66.60;;;;;;5028079;28;20551;-58
2022/07/18 05:34:09;;;;;;;3.53;1.60;;;23.50;62.30;;;;;;5029242;28;20024;-58
2022/07/18 05:36:34;;;;;;;5.15;1.42;;;24.30;59.90;;;;;;5026799;28;20112;-60
2022/07/18 05:39:01;;;;;;;5.30;1.60;;;25.40;55.50;;;;;;5029670;28;20025;-60
2022/07/18 05:41:27;;;;;;;2.00;1.20;;;26.10;53.50;;;;;;5028492;28;20089;-59
2022/07/18 05:43:53;;;;;;;3.35;1.23;;;26.60;53.00;;;;;;5027288;28;20484;-58
2022/07/18 05:46:18;;;;;;;2.17;1.40;;;27.30;50.10;;;;;;5028420;28;20083;-59
2022/07/18 05:48:45;;;;;;;8.00;1.90;;;27.80;48.70;;;;;;5027576;28;20033;-59
2022/07/18 05:51:11;;;;;;;4.68;1.30;;;28.50;47.80;;;;;;5028221;28;20029;-60
2022/07/18 05:53:37;;;;;;;4.38;1.65;;;29.30;44.60;;;;;;5027772;28;20034;-59
2022/07/18 05:56:03;;;;;;;4.78;1.50;;;29.60;44.30;;;;;;5028543;28;20034;-59
2022/07/18 05:58:28;;;;;;;3.67;1.30;;;29.40;43.70;;;;;;5027906;28;20065;-59
2022/07/18 06:00:54;;;;;;;4.68;1.38;;;29.70;43.50;;;;;;5028335;28;20117;-59
2022/07/18 06:03:20;;;;;;;4.68;1.40;;;29.60;43.20;;;;;;5029567;28;20109;-59
2022/07/18 06:05:46;;;;;;;3.85;1.25;;;30.10;43.40;;;;;;5026884;28;20236;-58
2022/07/18 06:08:11;;;;;;;2.28;1.48;;;30.60;42.70;;;;;;5028695;28;20032;-59
2022/07/18 06:10:37;;;;;;;3.45;1.33;;;30.70;42.00;;;;;;5027952;28;20046;-59
2022/07/18 06:13:03;;;;;;;3.92;1.30;;;31.00;41.80;;;;;;5028581;28;20432;-58
2022/07/18 06:15:28;;;;;;;2.33;1.42;;;31.40;41.50;;;;;;5027656;28;20358;-61
2022/07/18 06:17:54;;;;;;;2.83;1.88;;;31.90;40.80;;;;;;5028654;28;20026;-60
2022/07/18 06:20:20;;;;;;;9.23;1.45;;;31.60;40.60;;;;;;5027961;28;20401;-60
2022/07/18 06:22:46;;;;;;;4.80;1.60;;;32.30;40.10;;;;;;5027884;28;21091;-59
2022/07/18 06:25:12;;;;;;;4.25;1.10;;;32.20;39.60;;;;;;5028743;28;20025;-60
2022/07/18 06:27:37;;;;;;;2.88;1.10;;;32.30;39.40;;;;;;5028083;28;20025;-59
2022/07/18 06:30:08;;;;;;;4.35;1.38;;;32.10;39.70;;;;;;5027563;28;20045;-59
2022/07/18 06:32:33;;;;;;;3.85;1.23;;;32.40;39.80;;;;;;5028106;28;20032;-59
2022/07/18 06:34:59;;;;;;;4.32;1.30;;;33.10;38.90;;;;;;5027686;28;20041;-60
2022/07/18 06:37:25;;;;;;;2.10;1.10;;;32.70;39.20;;;;;;5029228;28;20528;-59
2022/07/18 06:39:50;;;;;;;3.90;1.10;;;33.20;38.70;;;;;;5031514;28;20101;-60
2022/07/18 06:42:16;;;;;;;3.85;0.90;;;33.90;37.30;;;;;;5031839;28;20504;-59
2022/07/18 06:44:42;;;;;;;2.92;1.00;;;34.30;36.40;;;;;;5030111;28;20397;-59
2022/07/18 06:47:07;;;;;;;3.05;1.00;;;34.10;36.50;;;;;;5032101;28;20378;-59
2022/07/18 06:49:33;;;;;;;2.33;0.82;;;34.60;34.80;;;;;;5032280;28;20128;-59
2022/07/18 06:51:58;;;;;;;2.08;0.82;;;34.60;35.00;;;;;;5032138;28;20026;-59
2022/07/18 06:54:27;;;;;;;3.03;0.68;;;34.90;33.90;;;;;;5032621;28;20457;-59
2022/07/18 06:56:54;;;;;;;3.30;0.70;;;35.20;34.50;;;;;;5031038;28;20021;-60
2022/07/18 06:59:20;;;;;;;2.20;0.70;;;35.80;34.90;;;;;;5030753;28;20120;-59
2022/07/18 07:01:46;;;;;;;1.90;0.93;;;35.90;33.10;;;;;;5030921;28;20110;-60
2022/07/18 07:04:11;;;;;;;1.88;0.80;;;36.00;32.60;;;;;;5031988;28;20029;-60
2022/07/18 07:06:38;;;;;;;2.75;0.70;;;35.60;32.20;;;;;;5030724;28;20057;-60
2022/07/18 07:09:07;;;;;;;2.90;0.90;;;35.00;31.50;;;;;;5032195;28;20037;-60
2022/07/18 07:11:33;;;;;;;3.00;0.80;;;34.50;31.70;;;;;;5030494;28;20030;-60
2022/07/18 07:13:58;;;;;;;1.10;0.68;;;34.70;32.90;;;;;;5030899;28;20037;-60
2022/07/18 07:16:24;;;;;;;1.63;0.70;;;35.40;32.90;;;;;;5031288;28;20400;-59
2022/07/18 07:18:50;;;;;;;2.50;0.75;;;35.10;31.40;;;;;;5030824;28;20116;-60
2022/07/18 07:21:15;;;;;;;1.63;0.80;;;35.00;32.70;;;;;;5031822;28;20155;-60
2022/07/18 07:23:41;;;;;;;1.65;0.60;;;35.60;31.70;;;;;;5031559;28;20036;-60
2022/07/18 07:26:07;;;;;;;5.68;0.82;;;35.60;32.00;;;;;;5030818;28;20033;-60
2022/07/18 07:28:33;;;;;;;1.83;0.55;;;36.10;32.20;;;;;;5030651;28;20048;-57
2022/07/18 07:30:59;;;;;;;2.05;1.05;;;36.60;31.10;;;;;;5029466;28;20426;-57
2022/07/18 07:33:25;;;;;;;2.22;0.68;;;37.10;31.20;;;;;;5046322;28;20126;-57
2022/07/18 07:35:51;;;;;;;3.75;0.80;;;37.40;29.80;;;;;;5031195;28;20079;-57
2022/07/18 07:38:19;;;;;;;4.85;0.88;;;37.00;31.30;;;;;;5030027;28;20026;-57
2022/07/18 07:40:47;;;;;;;1.65;0.60;;;37.30;30.10;;;;;;5031010;28;20049;-57
2022/07/18 07:43:15;;;;;;;2.30;0.65;;;37.00;31.00;;;;;;5029356;28;20061;-57
2022/07/18 07:45:45;;;;;;;4.90;0.80;;;36.90;29.80;;;;;;5030159;28;20163;-58
2022/07/18 07:48:10;;;;;;;2.92;0.70;;;37.50;30.00;;;;;;5029183;28;20025;-57
2022/07/18 07:50:36;;;;;;;1.58;0.60;;;37.90;29.00;;;;;;5029218;28;20064;-57
2022/07/18 07:53:02;;;;;;;0.85;0.65;;;37.60;30.00;;;;;;5030336;28;20607;-57
2022/07/18 07:55:28;;;;;;;0.73;0.60;;;38.40;29.40;;;;;;5028402;28;20041;-57
2022/07/18 07:57:53;;;;;;;2.45;0.60;;;38.50;29.80;;;;;;5030433;28;20025;-57
2022/07/18 08:00:20;;;;;;;1.15;0.65;;;39.00;29.80;;;;;;5029705;28;20044;-57
2022/07/18 08:03:01;;;;;;;3.45;0.70;;;38.70;28.80;;;;;;5030632;28;20440;-58
2022/07/18 08:05:35;;;;;;;4.45;0.60;;;39.20;28.60;;;;;;5028580;28;20018;-58
2022/07/18 08:08:01;;;;;;;1.58;0.50;;;39.50;29.80;;;;;;5028806;28;20092;-58
2022/07/18 08:10:28;;;;;;;2.00;0.75;;;39.20;29.20;;;;;;5028135;28;20485;-58
2022/07/18 08:12:54;;;;;;;1.95;0.60;;;39.80;28.30;;;;;;5029188;28;20120;-58
2022/07/18 08:15:19;;;;;;;1.17;0.70;;;40.40;27.20;;;;;;5030194;28;20627;-58
2022/07/18 08:17:45;;;;;;;0.93;0.50;;;41.10;26.90;;;;;;5028834;28;20041;-58
2022/07/18 08:20:11;;;;;;;2.78;0.60;;;40.70;27.50;;;;;;5029877;28;20601;-58
2022/07/18 08:23:00;;;;;;;1.52;0.70;;;41.00;27.70;;;;;;5043074;28;20099;-58
2022/07/18 08:25:28;;;;;;;1.98;0.75;;;41.40;26.50;;;;;;5027197;28;20033;-58
2022/07/18 08:27:55;;;;;;;2.42;0.70;;;41.40;26.20;;;;;;5028974;28;20416;-58
2022/07/18 08:30:21;;;;;;;1.60;0.70;;;41.40;26.80;;;;;;5044178;28;20025;-59
2022/07/18 08:32:47;;;;;;;1.27;0.60;;;41.50;27.70;;;;;;5030005;28;20907;-58
2022/07/18 08:35:12;;;;;;;3.40;0.70;;;41.60;27.40;;;;;;5025298;28;20144;-58
2022/07/18 08:37:38;;;;;;;1.48;0.70;;;41.50;26.50;;;;;;5026253;28;20034;-58
2022/07/18 08:40:04;;;;;;;3.30;0.75;;;41.70;26.10;;;;;;5028974;28;20036;-58
2022/07/18 08:42:33;;;;;;;2.40;0.40;;;41.30;26.70;;;;;;5025279;28;20040;-58
2022/07/18 08:44:59;;;;;;;2.13;0.57;;;41.80;26.10;;;;;;5028611;28;20048;-58
2022/07/18 08:47:28;;;;;;;3.55;0.68;;;41.70;25.80;;;;;;5025870;28;20478;-58
2022/07/18 08:49:54;;;;;;;1.40;0.50;;;41.30;26.80;;;;;;5026077;28;20053;-58
2022/07/18 08:52:20;;;;;;;1.48;0.70;;;41.50;26.90;;;;;;5042111;28;20084;-58
2022/07/18 08:54:48;;;;;;;2.05;0.52;;;41.40;26.40;;;;;;5027768;28;20196;-57
2022/07/18 08:57:15;;;;;;;4.97;0.68;;;41.20;26.00;;;;;;5026561;28;20025;-57
2022/07/18 08:59:40;;;;;;;1.73;0.80;;;40.90;27.40;;;;;;5025096;28;20099;-57
2022/07/18 09:02:07;;;;;;;1.15;0.50;;;41.20;27.00;;;;;;5027445;28;20761;-57
2022/07/18 09:04:40;;;;;;;3.50;0.75;;;41.60;27.30;;;;;;5028293;28;20079;-58
2022/07/18 09:07:10;;;;;;;3.40;0.70;;;41.40;26.90;;;;;;5028890;28;20022;-58
2022/07/18 09:09:38;;;;;;;2.35;0.77;;;41.10;26.20;;;;;;5025583;28;20452;-58
2022/07/18 09:12:05;;;;;;;0.98;0.50;;;41.00;27.30;;;;;;5027054;28;20029;-58
2022/07/18 09:14:38;;;;;;;1.83;0.60;;;40.80;27.40;;;;;;5024315;28;20516;-58
2022/07/18 09:17:11;;;;;;;1.25;0.50;;;41.00;27.50;;;;;;5025536;28;20448;-57
2022/07/18 09:19:39;;;;;;;0.75;0.60;;;41.40;26.50;;;;;;5025541;28;20040;-58
2022/07/18 09:22:19;;;;;;;1.83;0.50;;;41.90;25.10;;;;;;5024036;28;20030;-58
2022/07/18 09:25:00;;;;;;;1.40;0.60;;;41.70;26.00;;;;;;5028168;28;20033;-58
2022/07/18 09:27:30;;;;;;;0.50;0.50;;;41.50;26.30;;;;;;5025503;28;20090;-58
2022/07/18 09:30:14;;;;;;;;;;;41.60;25.60;;;;;;5026820;28;20427;-58
2022/07/18 09:32:41;;;;;;;0.95;0.70;;;41.50;26.20;;;;;;5023783;28;20015;-58
2022/07/18 09:35:19;;;;;;;1.27;0.50;;;41.60;25.70;;;;;;5025427;28;20037;-58
2022/07/18 09:37:55;;;;;;;0.80;0.50;;;41.50;25.20;;;;;;5025494;28;20564;-58
2022/07/18 09:40:24;;;;;;;1.23;0.40;;;41.20;24.70;;;;;;5026674;28;20069;-61
2022/07/18 09:42:56;;;;;;;1.25;0.43;;;41.00;24.10;;;;;;5025454;28;20033;-61
2022/07/18 09:45:27;;;;;;;1.65;0.40;;;40.90;25.10;;;;;;5025678;28;20570;-61
2022/07/18 09:47:56;;;;;;;2.28;0.50;;;41.00;24.90;;;;;;5026275;28;20032;-61
2022/07/18 09:50:25;;;;;;;4.40;0.50;;;41.00;23.70;;;;;;5038812;28;20057;-61
2022/07/18 09:52:59;;;;;;;0.73;0.40;;;41.20;23.20;;;;;;5025763;28;20051;-61
2022/07/18 09:55:25;;;;;;;1.23;0.50;;;41.50;23.60;;;;;;5024981;28;20396;-61
2022/07/18 09:58:07;;;;;;;1.17;0.40;;;41.60;24.30;;;;;;5022300;28;20026;-60
2022/07/18 10:00:36;;;;;;;2.15;0.70;;;42.10;24.70;;;;;;5023966;28;20077;-60
2022/07/18 10:03:04;;;;;;;0.47;0.47;;;42.50;24.60;;;;;;5025772;28;20041;-60
2022/07/18 10:05:32;;;;;;;0.60;0.50;;;42.60;24.50;;;;;;5026774;28;20040;-61
2022/07/18 10:07:59;;;;;;;1.85;0.50;;;42.20;23.80;;;;;;5024462;28;20116;-61
2022/07/18 10:10:26;;;;;;;1.52;0.55;;;41.90;24.60;;;;;;5026456;28;20546;-61
2022/07/18 10:12:54;;;;;;;1.38;0.50;;;42.20;25.00;;;;;;5029748;28;20038;-61
2022/07/18 10:15:25;;;;;;;1.58;0.50;;;42.10;24.90;;;;;;5030755;28;20026;-61
2022/07/18 10:17:51;;;;;;;0.95;0.50;;;41.60;24.00;;;;;;5031505;28;20033;-61
2022/07/18 10:20:24;;;;;;;0.93;0.57;;;41.30;24.20;;;;;;5030775;28;20070;-61
2022/07/18 10:22:52;;;;;;;1.45;0.50;;;41.30;25.10;;;;;;5030150;28;20057;-61
2022/07/18 10:25:22;;;;;;;2.15;0.50;;;41.00;26.10;;;;;;5029377;28;20039;-61
2022/07/18 10:27:49;;;;;;;1.95;0.50;;;40.30;26.20;;;;;;5031876;28;21611;-61
2022/07/18 10:30:15;;;;;;;1.17;0.50;;;40.00;26.70;;;;;;5032170;28;20038;-61
2022/07/18 10:32:42;;;;;;;0.57;0.40;;;39.90;27.70;;;;;;5031494;28;20037;-60
2022/07/18 10:35:10;;;;;;;1.08;0.60;;;39.80;27.10;;;;;;5031689;28;20163;-60
2022/07/18 10:37:37;;;;;;;2.17;0.60;;;40.30;26.90;;;;;;5030465;28;20053;-60
2022/07/18 10:40:29;;;;;;;1.98;0.70;;;40.30;26.20;;;;;;5028172;28;20119;-62
2022/07/18 10:43:29;;;;;;;2.22;0.60;;;40.20;25.20;;;;;;5029354;28;20104;-62
2022/07/18 10:45:55;;;;;;;1.02;0.50;;;40.30;26.20;;;;;;5030611;28;20040;-64
2022/07/18 10:48:33;;;;;;;1.67;0.50;;;40.40;26.50;;;;;;5029753;28;20065;-65
2022/07/18 10:51:00;;;;;;;1.15;0.50;;;40.20;26.20;;;;;;5031270;28;20034;-62
2022/07/18 10:53:55;;;;;;;0.90;0.40;;;40.00;25.90;;;;;;5031285;28;20032;-62
2022/07/18 10:56:35;;;;;;;0.40;0.40;;;39.80;25.60;;;;;;5030991;28;20038;-62
2022/07/18 10:59:14;;;;;;;0.85;0.40;;;39.90;25.60;;;;;;5030424;28;20113;-64
2022/07/18 11:01:51;;;;;;;0.50;0.50;;;40.00;26.20;;;;;;5030924;28;20032;-62
2022/07/18 11:04:27;;;;;;;0.63;0.60;;;39.90;24.90;;;;;;5030123;28;20057;-62
2022/07/18 11:07:08;;;;;;;2.85;1.00;;;39.70;25.50;;;;;;5029115;28;20025;-62
2022/07/18 11:09:46;;;;;;;0.77;0.70;;;39.50;26.10;;;;;;5029749;28;20026;-62
2022/07/18 11:12:30;;;;;;;0.55;0.50;;;39.00;25.00;;;;;;5029431;28;20029;-61
2022/07/18 11:15:06;;;;;;;0.80;0.70;;;38.70;23.90;;;;;;5031540;28;20493;-61
2022/07/18 11:17:53;;;;;;;0.80;0.70;;;37.90;24.70;;;;;;5028121;28;20527;-62
2022/07/18 11:20:29;;;;;;;2.45;0.70;;;37.30;26.20;;;;;;5031228;28;20045;-62
2022/07/18 11:22:56;;;;;;;1.48;0.75;;;37.10;26.90;;;;;;5027658;28;20029;-62
2022/07/18 11:25:28;;;;;;;1.10;0.90;;;37.00;25.90;;;;;;5030717;28;20037;-61
2022/07/18 11:27:55;;;;;;;1.38;0.93;;;37.10;26.10;;;;;;5028696;28;20108;-62
2022/07/18 11:30:22;;;;;;;2.28;0.98;;;37.30;27.20;;;;;;5028653;28;20033;-62
2022/07/18 11:32:49;;;;;;;1.08;0.93;;;37.10;25.40;;;;;;5030291;28;20109;-62
2022/07/18 11:35:20;;;;;;;0.88;0.80;;;36.80;25.10;;;;;;5029542;28;20090;-63
2022/07/18 11:37:50;;;;;;;2.50;0.70;;;36.20;28.00;;;;;;5029263;28;20021;-62
2022/07/18 11:40:16;;;;;;;;;;;36.00;27.10;;;;;;5029761;28;20091;-61
2022/07/18 11:42:42;;;;;;;0.75;0.68;;;35.90;27.80;;;;;;5028558;28;20349;-61
2022/07/18 11:45:10;;;;;;;0.80;0.50;;;36.10;27.90;;;;;;5030359;28;20473;-61
2022/07/18 11:47:47;;;;;;;1.90;0.93;;;36.00;27.10;;;;;;5029362;28;20030;-61
2022/07/18 11:50:13;;;;;;;1.00;0.60;;;36.20;27.20;;;;;;5028917;28;20417;-64
2022/07/18 11:52:38;;;;;;;1.45;0.57;;;36.40;28.50;;;;;;5028353;28;20044;-61
2022/07/18 11:55:05;;;;;;;4.45;0.63;;;36.80;27.40;;;;;;5029496;28;20072;-61
2022/07/18 11:57:32;;;;;;;0.60;0.60;;;36.90;28.40;;;;;;5028816;28;20092;-61
2022/07/18 11:59:59;;;;;;;1.25;0.68;;;37.20;27.50;;;;;;5030394;28;20059;-62
2022/07/18 12:03:02;;;;;;;1.10;0.60;;;37.20;27.70;;;;;;5030311;28;20048;-62
2022/07/18 12:06:01;;;;;;;0.82;0.70;;;37.00;27.90;;;;;;5029466;28;20109;-61
2022/07/18 12:08:27;;;;;;;1.05;0.70;;;36.90;27.80;;;;;;5028637;28;20029;-61
2022/07/18 12:11:09;;;;;;;1.50;0.60;;;36.90;27.90;;;;;;5029158;28;20060;-63
2022/07/18 12:13:44;;;;;;;0.70;0.50;;;36.70;27.20;;;;;;5028550;28;20036;-64
2022/07/18 12:16:31;;;;;;;0.85;0.70;;;36.30;26.90;;;;;;5028325;28;20037;-62
2022/07/18 12:19:11;;;;;;;1.27;0.80;;;35.70;27.60;;;;;;5029439;28;20397;-62
2022/07/18 12:21:56;;;;;;;2.53;0.77;;;36.10;28.50;;;;;;5028294;28;20073;-61
2022/07/18 12:24:33;;;;;;;0.73;0.55;;;36.70;29.30;;;;;;5028694;28;20549;-64
2022/07/18 12:27:20;;;;;;;1.35;0.60;;;37.20;28.10;;;;;;5027751;28;20481;-62
2022/07/18 12:30:04;;;;;;;1.10;0.60;;;38.10;28.00;;;;;;5028161;28;20522;-64
2022/07/18 12:32:43;;;;;;;1.95;0.50;;;38.70;27.70;;;;;;5027483;28;20022;-63
2022/07/18 12:35:19;;;;;;;2.25;0.70;;;38.70;26.50;;;;;;5027776;28;20044;-62
2022/07/18 12:38:12;;;;;;;2.05;0.50;;;38.70;26.70;;;;;;5028830;28;20098;-62
2022/07/18 12:40:49;;;;;;;1.17;0.50;;;38.80;27.70;;;;;;5027462;28;20026;-61
2022/07/18 12:43:36;;;;;;;0.47;0.45;;;38.80;26.70;;;;;;5028262;28;20022;-62
2022/07/18 12:46:06;;;;;;;1.48;0.60;;;38.80;26.60;;;;;;5028748;28;20029;-65
2022/07/18 12:48:32;;;;;;;0.60;0.50;;;38.90;27.00;;;;;;5028912;28;20033;-62
2022/07/18 12:51:07;;;;;;;1.50;0.60;;;39.00;26.90;;;;;;5029332;28;20014;-61
2022/07/18 12:53:35;;;;;;;2.63;0.70;;;39.20;26.00;;;;;;5029309;28;20033;-62
2022/07/18 12:56:02;;;;;;;2.55;0.60;;;39.00;26.50;;;;;;5042145;28;20029;-61
2022/07/18 12:58:27;;;;;;;1.80;0.63;;;38.80;26.80;;;;;;5029900;28;20060;-62